Bowdoin, Maine
Current Conditions -  °F | °C
As of 12:15 PM on Thursday 23 Oct 2014 (Local Time) from KLEW Reporting Station
Overcast Overcast  
Wind Chill: 41°   Ceiling: 1100
Heat Index: 48°   Visibility: 8mi
Dew Point: 45°   Wind: 22mph
Humidity: 87%   Direction: 30°NNE
Pressure: 29.82"   Gusts: 29mph
Location:  44.05°N, 70.02°W
Report Text: KLEW 231615Z AUTO 03019G25KT 8SM BKN011 OVC018 09/07 A2982 RMK AO1
Loading
Personal Weather Stations






























Interactive Weather Map
Tropical Storm Tracking
New forecast layout! Learn more

10-Day Weather Forecast

Advertisements
Track Severe Weather on mobile